Time;durP1;ratioP1;P1;durP2;ratioP2;P2;SDS_P1;SDS_P2;PMS_P1;PMS_P2;Temp;Humidity;BMP_temperature;BMP_pressure;BME280_temperature;BME280_humidity;BME280_pressure;Samples;Min_cycle;Max_cycle;Signal;HPM_P1;HPM_P2
2021/04/15 00:01:55;;;;;;;13.82;7.97;;;;;;;;;;4995785;28;20468;-84
2021/04/15 00:04:41;;;;;;;14.07;9.20;;;;;;;;;;4986350;28;20026;-83
2021/04/15 00:07:26;;;;;;;12.75;8.32;;;;;;;;;;4980132;28;20030;-82
2021/04/15 00:10:11;;;;;;;12.00;9.18;;;;;;;;;;4985447;28;20022;-82
2021/04/15 00:12:57;;;;;;;13.85;9.60;;;;;;;;;;4984503;28;20021;-82
2021/04/15 00:15:46;;;;;;;13.00;9.55;;;;;;;;;;4987537;28;20106;-82
2021/04/15 00:18:31;;;;;;;12.40;9.30;;;;;;;;;;5001167;28;20087;-82
2021/04/15 00:21:16;;;;;;;13.65;8.60;;;;;;;;;;4984725;28;20034;-84
2021/04/15 00:24:02;;;;;;;16.42;10.35;;;;;;;;;;4996148;28;20030;-82
2021/04/15 00:26:47;;;;;;;14.73;9.70;;;;;;;;;;4984087;28;20116;-83
2021/04/15 00:29:33;;;;;;;15.55;10.57;;;;;;;;;;4986404;28;20022;-82
2021/04/15 00:32:18;;;;;;;15.32;9.18;;;;;;;;;;4983946;28;20096;-81
2021/04/15 00:35:04;;;;;;;14.52;9.68;;;;;;;;;;5000631;28;20026;-82
2021/04/15 00:37:49;;;;;;;11.48;8.13;;;;;;;;;;4977961;28;20029;-81
2021/04/15 00:40:35;;;;;;;13.93;9.35;;;;;;;;;;4985852;28;20158;-82
2021/04/15 00:43:22;;;;;;;12.95;8.98;;;;;;;;;;4994140;28;20034;-81
2021/04/15 00:46:16;;;;;;;17.10;9.80;;;;;;;;;;4986295;28;20026;-81
2021/04/15 00:49:02;;;;;;;13.32;8.75;;;;;;;;;;4982396;28;20384;-83
2021/04/15 00:51:49;;;;;;;16.50;10.65;;;;;;;;;;4971625;28;20041;-83
2021/04/15 00:54:40;;;;;;;13.88;10.10;;;;;;;;;;4970393;28;20129;-81
2021/04/15 00:57:34;;;;;;;15.60;9.75;;;;;;;;;;4983955;28;20081;-84
2021/04/15 01:00:24;;;;;;;16.38;10.48;;;;;;;;;;4985070;28;20105;-84
2021/04/15 01:03:10;;;;;;;18.30;10.27;;;;;;;;;;4982512;28;20027;-82
2021/04/15 01:05:55;;;;;;;14.73;9.85;;;;;;;;;;4985188;28;20890;-83
2021/04/15 01:08:41;;;;;;;17.23;10.20;;;;;;;;;;4983257;28;20033;-84
2021/04/15 01:11:44;;;;;;;13.98;10.40;;;;;;;;;;4985773;28;20034;-84
2021/04/15 01:14:40;;;;;;;14.45;10.55;;;;;;;;;;4983869;28;20049;-82
2021/04/15 01:17:34;;;;;;;15.95;11.60;;;;;;;;;;4986479;28;20030;-83
2021/04/15 01:20:22;;;;;;;14.10;9.38;;;;;;;;;;4981013;28;20026;-84
2021/04/15 01:23:17;;;;;;;15.95;9.52;;;;;;;;;;4982834;28;20050;-84
2021/04/15 01:26:21;;;;;;;14.93;10.40;;;;;;;;;;4981260;28;20113;-83
2021/04/15 01:29:17;;;;;;;15.18;11.07;;;;;;;;;;4982462;28;20085;-85
2021/04/15 01:32:02;;;;;;;14.38;10.18;;;;;;;;;;4983129;28;20033;-83
2021/04/15 01:34:55;;;;;;;16.08;10.77;;;;;;;;;;4984164;28;20200;-81
2021/04/15 01:37:59;;;;;;;16.35;10.70;;;;;;;;;;4985298;28;20022;-82
2021/04/15 01:40:49;;;;;;;20.50;11.88;;;;;;;;;;4982991;28;20054;-83
2021/04/15 01:43:37;;;;;;;15.40;10.80;;;;;;;;;;5003008;28;20035;-83
2021/04/15 01:46:26;;;;;;;15.65;9.93;;;;;;;;;;5000893;28;20034;-82
2021/04/15 01:49:12;;;;;;;12.70;9.27;;;;;;;;;;4975560;28;20404;-83
2021/04/15 01:51:58;;;;;;;15.93;10.75;;;;;;;;;;4987706;28;20113;-82
2021/04/15 01:54:47;;;;;;;17.88;12.20;;;;;;;;;;4997780;28;20030;-82
2021/04/15 01:57:38;;;;;;;18.52;12.02;;;;;;;;;;4975249;28;20130;-83
2021/04/15 02:00:26;;;;;;;18.33;13.30;;;;;;;;;;4987270;28;20490;-82
2021/04/15 02:03:18;;;;;;;15.43;12.25;;;;;;;;;;4988822;28;20113;-82
2021/04/15 02:06:09;;;;;;;19.30;11.98;;;;;;;;;;4986222;28;20417;-82
2021/04/15 02:08:58;;;;;;;18.65;11.77;;;;;;;;;;4975559;28;20026;-81
2021/04/15 02:11:52;;;;;;;18.80;13.05;;;;;;;;;;4986501;28;20030;-84
2021/04/15 02:14:40;;;;;;;21.80;12.93;;;;;;;;;;4989216;28;20089;-83
2021/04/15 02:17:25;;;;;;;17.05;11.88;;;;;;;;;;4984406;28;20092;-82
2021/04/15 02:20:16;;;;;;;18.48;12.98;;;;;;;;;;4986322;28;20023;-83
2021/04/15 02:23:04;;;;;;;15.73;11.07;;;;;;;;;;4986676;28;20034;-84
2021/04/15 02:25:54;;;;;;;17.20;11.73;;;;;;;;;;4988262;28;20030;-82
2021/04/15 02:28:47;;;;;;;17.30;11.52;;;;;;;;;;5002368;28;20105;-83
2021/04/15 02:31:40;;;;;;;19.25;12.68;;;;;;;;;;4986627;28;20133;-83
2021/04/15 02:34:34;;;;;;;19.15;12.55;;;;;;;;;;5002500;28;20055;-83
2021/04/15 02:37:21;;;;;;;19.50;13.45;;;;;;;;;;4997710;28;20138;-82
2021/04/15 02:40:10;;;;;;;19.40;13.32;;;;;;;;;;4988788;28;20672;-84
2021/04/15 02:42:57;;;;;;;15.63;11.40;;;;;;;;;;4972244;28;20070;-83
2021/04/15 02:45:44;;;;;;;15.73;10.80;;;;;;;;;;5000952;28;20030;-83
2021/04/15 02:48:30;;;;;;;17.27;12.30;;;;;;;;;;4985345;28;20080;-83
2021/04/15 02:51:24;;;;;;;16.60;12.38;;;;;;;;;;4987239;28;20516;-83
2021/04/15 02:54:17;;;;;;;19.23;12.10;;;;;;;;;;4984357;28;20054;-83
2021/04/15 02:57:17;;;;;;;17.75;12.27;;;;;;;;;;4984785;28;20054;-83
2021/04/15 03:00:05;;;;;;;19.85;14.13;;;;;;;;;;4976200;28;20032;-83
2021/04/15 03:02:56;;;;;;;19.02;14.15;;;;;;;;;;4973200;28;20246;-83
2021/04/15 03:05:43;;;;;;;18.17;12.02;;;;;;;;;;4975167;28;20072;-82
2021/04/15 03:08:29;;;;;;;19.17;12.80;;;;;;;;;;4972476;28;20112;-83
2021/04/15 03:11:20;;;;;;;19.52;12.77;;;;;;;;;;4974830;28;20022;-83
2021/04/15 03:14:09;;;;;;;17.67;12.30;;;;;;;;;;4974623;28;20026;-82
2021/04/15 03:16:56;;;;;;;20.15;13.13;;;;;;;;;;4973965;28;20085;-82
2021/04/15 03:19:44;;;;;;;16.90;11.90;;;;;;;;;;4973722;28;20023;-83
2021/04/15 03:22:49;;;;;;;20.42;13.88;;;;;;;;;;4974253;28;20026;-82
2021/04/15 03:25:35;;;;;;;21.67;13.65;;;;;;;;;;4976179;28;20038;-83
2021/04/15 03:28:39;;;;;;;20.27;13.90;;;;;;;;;;4972947;28;20030;-82
2021/04/15 03:31:27;;;;;;;22.60;14.65;;;;;;;;;;4977506;28;20040;-85
2021/04/15 03:34:28;;;;;;;19.55;14.60;;;;;;;;;;4975797;28;20485;-83
2021/04/15 03:37:20;;;;;;;19.02;12.38;;;;;;;;;;4975195;28;20088;-83
2021/04/15 03:40:07;;;;;;;19.13;12.27;;;;;;;;;;4970886;28;20091;-82
2021/04/15 03:42:55;;;;;;;16.88;12.43;;;;;;;;;;4976642;28;20522;-82
2021/04/15 03:45:49;;;;;;;17.33;11.82;;;;;;;;;;4972912;28;20376;-82
2021/04/15 03:48:37;;;;;;;17.15;11.90;;;;;;;;;;4975860;28;20031;-82
2021/04/15 03:51:24;;;;;;;19.08;13.73;;;;;;;;;;4971807;28;20023;-82
2021/04/15 03:54:11;;;;;;;17.70;12.27;;;;;;;;;;4973521;28;20022;-84
2021/04/15 03:56:57;;;;;;;20.08;12.45;;;;;;;;;;4969884;28;20050;-83
2021/04/15 03:59:55;;;;;;;19.15;12.68;;;;;;;;;;4960178;28;20019;-83
2021/04/15 04:02:53;;;;;;;17.92;11.50;;;;;;;;;;4972498;28;20092;-84
2021/04/15 04:05:40;;;;;;;19.17;14.20;;;;;;;;;;4956585;28;20019;-83
2021/04/15 04:08:49;;;;;;;20.02;13.55;;;;;;;;;;4970353;28;20037;-83
2021/04/15 04:11:35;;;;;;;20.40;12.27;;;;;;;;;;4960657;28;20042;-85
2021/04/15 04:14:26;;;;;;;18.73;12.32;;;;;;;;;;4972169;28;20581;-83
2021/04/15 04:17:20;;;;;;;19.95;13.13;;;;;;;;;;4956939;28;20033;-84
2021/04/15 04:20:06;;;;;;;20.15;13.82;;;;;;;;;;4990208;28;20023;-83
2021/04/15 04:23:04;;;;;;;20.35;13.10;;;;;;;;;;4979586;28;20107;-84
2021/04/15 04:26:08;;;;;;;21.65;13.68;;;;;;;;;;4972303;28;20025;-83
2021/04/15 04:29:12;;;;;;;19.98;13.82;;;;;;;;;;4973710;28;20465;-84
2021/04/15 04:31:59;;;;;;;21.88;13.18;;;;;;;;;;4971946;28;20026;-83
2021/04/15 04:34:49;;;;;;;16.98;11.50;;;;;;;;;;4973251;28;20022;-82
2021/04/15 04:37:34;;;;;;;19.60;12.63;;;;;;;;;;4971543;28;20026;-82
2021/04/15 04:40:25;;;;;;;20.02;12.70;;;;;;;;;;4976862;28;20030;-83
2021/04/15 04:43:17;;;;;;;17.10;11.35;;;;;;;;;;4973020;28;20040;-84
2021/04/15 04:46:06;;;;;;;18.05;12.40;;;;;;;;;;4970742;28;20495;-84
2021/04/15 04:48:54;;;;;;;17.37;11.83;;;;;;;;;;4974520;28;20117;-85
2021/04/15 04:51:49;;;;;;;18.25;12.77;;;;;;;;;;4971728;28;20030;-85
2021/04/15 04:54:37;;;;;;;20.48;11.88;;;;;;;;;;4973098;28;20340;-84
2021/04/15 04:57:26;;;;;;;21.55;13.10;;;;;;;;;;4972436;28;20078;-84
2021/04/15 05:00:13;;;;;;;21.30;13.38;;;;;;;;;;4978565;28;20492;-84
2021/04/15 05:02:58;;;;;;;19.73;11.63;;;;;;;;;;4963350;28;20581;-83
2021/04/15 05:05:43;;;;;;;21.92;11.30;;;;;;;;;;4972513;28;20061;-85
2021/04/15 05:09:01;;;;;;;16.95;12.55;;;;;;;;;;4972271;28;20061;-82
2021/04/15 05:11:47;;;;;;;19.23;12.43;;;;;;;;;;4952703;28;20109;-82
2021/04/15 05:14:33;;;;;;;19.52;10.90;;;;;;;;;;4987893;28;20549;-82
2021/04/15 05:17:24;;;;;;;16.13;10.95;;;;;;;;;;4978131;28;20129;-82
2021/04/15 05:20:18;;;;;;;18.33;10.23;;;;;;;;;;4990552;28;20134;-82
2021/04/15 05:23:09;;;;;;;17.02;10.82;;;;;;;;;;4964061;28;20164;-83
2021/04/15 05:25:55;;;;;;;16.00;10.50;;;;;;;;;;4984150;28;20087;-82
2021/04/15 05:28:41;;;;;;;19.52;11.05;;;;;;;;;;4974203;28;20500;-82
2021/04/15 05:31:28;;;;;;;17.48;10.02;;;;;;;;;;4977059;28;20080;-81
2021/04/15 05:34:25;;;;;;;15.90;10.80;;;;;;;;;;4960917;28;20022;-84
2021/04/15 05:37:20;;;;;;;13.43;9.55;;;;;;;;;;4972256;28;20022;-81
2021/04/15 05:40:06;;;;;;;18.05;11.25;;;;;;;;;;4996463;28;20030;-83
2021/04/15 05:42:59;;;;;;;17.75;11.88;;;;;;;;;;4975016;28;20035;-81
2021/04/15 05:45:45;;;;;;;17.33;9.60;;;;;;;;;;4975435;28;20074;-82
2021/04/15 05:48:31;;;;;;;17.75;10.23;;;;;;;;;;4975852;28;20060;-82
2021/04/15 05:51:21;;;;;;;16.52;9.73;;;;;;;;;;4980717;28;20246;-82
2021/04/15 05:54:08;;;;;;;15.25;9.82;;;;;;;;;;4976397;28;20026;-83
2021/04/15 05:57:10;;;;;;;11.85;8.88;;;;;;;;;;4975417;28;20046;-86
2021/04/15 05:59:59;;;;;;;13.63;8.90;;;;;;;;;;4974728;28;20061;-87
2021/04/15 06:02:47;;;;;;;13.75;9.63;;;;;;;;;;4968786;28;20548;-84
2021/04/15 06:05:39;;;;;;;38.58;25.73;;;;;;;;;;4974832;28;20049;-83
2021/04/15 06:08:28;;;;;;;15.77;9.70;;;;;;;;;;4990618;28;20027;-83
2021/04/15 06:11:13;;;;;;;12.93;8.85;;;;;;;;;;4976051;28;20079;-84
2021/04/15 06:14:18;;;;;;;13.00;8.35;;;;;;;;;;4972350;28;20033;-85
2021/04/15 06:17:19;;;;;;;15.35;7.68;;;;;;;;;;4979034;28;20018;-85
2021/04/15 06:20:07;;;;;;;12.57;7.03;;;;;;;;;;4972489;28;20116;-83
2021/04/15 06:22:53;;;;;;;13.73;6.93;;;;;;;;;;4976577;28;20038;-84
2021/04/15 06:25:42;;;;;;;11.73;6.00;;;;;;;;;;4993094;28;20105;-82
2021/04/15 06:28:34;;;;;;;13.73;7.10;;;;;;;;;;4976471;28;20058;-83
2021/04/15 06:31:38;;;;;;;12.38;6.25;;;;;;;;;;4985350;28;20823;-83
2021/04/15 06:34:25;;;;;;;15.95;6.40;;;;;;;;;;4975500;28;20057;-83
2021/04/15 06:37:13;;;;;;;12.25;6.20;;;;;;;;;;4973064;28;20026;-84
2021/04/15 06:40:31;;;;;;;11.63;5.82;;;;;;;;;;4994701;28;20041;-86
2021/04/15 06:43:22;;;;;;;8.15;5.30;;;;;;;;;;4968804;28;20042;-87
2021/04/15 06:46:26;;;;;;;10.18;5.32;;;;;;;;;;4971516;28;20030;-84
2021/04/15 06:49:21;;;;;;;9.63;5.13;;;;;;;;;;4968013;28;20030;-85
2021/04/15 06:52:15;;;;;;;9.73;5.40;;;;;;;;;;4980897;28;20105;-84
2021/04/15 06:55:20;;;;;;;9.38;5.30;;;;;;;;;;4975465;28;20018;-86
2021/04/15 06:58:24;;;;;;;10.43;5.63;;;;;;;;;;4971910;28;20141;-84
2021/04/15 07:01:13;;;;;;;12.65;6.13;;;;;;;;;;4970825;28;20485;-82
2021/04/15 07:03:59;;;;;;;9.23;5.00;;;;;;;;;;4986303;28;20038;-81
2021/04/15 07:06:46;;;;;;;37.05;23.58;;;;;;;;;;4972783;28;20031;-81
2021/04/15 07:09:38;;;;;;;9.02;5.85;;;;;;;;;;4971689;28;20112;-83
2021/04/15 07:12:42;;;;;;;10.68;5.97;;;;;;;;;;4971925;28;20358;-82
2021/04/15 07:15:27;;;;;;;9.68;5.38;;;;;;;;;;4985952;28;20061;-82
2021/04/15 07:18:22;;;;;;;14.75;5.30;;;;;;;;;;4970257;28;20037;-82
2021/04/15 07:21:26;;;;;;;16.30;6.10;;;;;;;;;;4988747;28;20025;-83
2021/04/15 07:24:31;;;;;;;13.73;4.55;;;;;;;;;;4967414;28;20023;-83
2021/04/15 07:27:27;;;;;;;12.07;5.82;;;;;;;;;;4973524;28;20029;-82
2021/04/15 07:30:13;;;;;;;10.88;4.70;;;;;;;;;;4980668;28;20101;-82
2021/04/15 07:33:07;;;;;;;9.57;5.32;;;;;;;;;;4968832;28;20052;-83
2021/04/15 07:35:58;;;;;;;10.70;5.18;;;;;;;;;;4959203;28;20030;-82
2021/04/15 07:38:52;;;;;;;9.30;4.78;;;;;;;;;;4969462;28;20048;-81
2021/04/15 07:42:10;;;;;;;9.38;4.95;;;;;;;;;;4970695;28;20034;-82
2021/04/15 07:45:02;;;;;;;8.45;4.88;;;;;;;;;;4928910;28;20117;-81
2021/04/15 07:48:06;;;;;;;10.73;4.90;;;;;;;;;;4973069;28;20512;-83
2021/04/15 07:50:55;;;;;;;11.57;4.35;;;;;;;;;;4966881;28;20033;-82
2021/04/15 07:54:01;;;;;;;7.03;4.90;;;;;;;;;;4970843;28;20022;-83
2021/04/15 07:56:46;;;;;;;9.07;4.25;;;;;;;;;;4972947;28;20586;-82
2021/04/15 07:59:38;;;;;;;8.93;4.80;;;;;;;;;;4985760;28;20066;-83
2021/04/15 08:02:23;;;;;;;8.15;4.75;;;;;;;;;;4972815;28;20022;-83
2021/04/15 08:05:23;;;;;;;11.13;6.22;;;;;;;;;;4971418;28;20229;-83
2021/04/15 08:08:27;;;;;;;18.20;10.35;;;;;;;;;;4974201;28;20033;-83
2021/04/15 08:11:12;;;;;;;11.00;5.90;;;;;;;;;;4972434;28;20137;-82
2021/04/15 08:14:10;;;;;;;8.88;4.25;;;;;;;;;;4987322;28;20484;-82
2021/04/15 08:17:15;;;;;;;8.50;4.68;;;;;;;;;;4975108;28;20029;-82
2021/04/15 08:20:16;;;;;;;10.32;5.15;;;;;;;;;;4967460;28;20033;-85
2021/04/15 08:23:31;;;;;;;7.03;4.78;;;;;;;;;;4976560;28;20034;-83
2021/04/15 08:26:16;;;;;;;10.57;5.38;;;;;;;;;;4972136;28;20492;-83
2021/04/15 08:29:07;;;;;;;12.90;5.10;;;;;;;;;;4973488;28;20053;-83
2021/04/15 08:32:09;;;;;;;8.13;4.90;;;;;;;;;;4971090;28;20022;-82
2021/04/15 08:35:06;;;;;;;9.57;4.65;;;;;;;;;;4973148;28;20653;-83
2021/04/15 08:37:54;;;;;;;8.45;4.72;;;;;;;;;;4965650;28;20177;-83
2021/04/15 08:40:45;;;;;;;7.43;5.00;;;;;;;;;;4969023;28;20090;-87
2021/04/15 08:44:03;;;;;;;6.88;4.40;;;;;;;;;;4991947;28;20034;-84
2021/04/15 08:46:58;;;;;;;12.77;4.50;;;;;;;;;;4977185;28;20040;-83
2021/04/15 08:49:43;;;;;;;7.50;4.47;;;;;;;;;;4991663;28;20018;-85
2021/04/15 08:52:39;;;;;;;7.15;4.10;;;;;;;;;;4976141;28;20033;-84
2021/04/15 08:55:24;;;;;;;7.93;4.30;;;;;;;;;;4974891;28;20027;-86
2021/04/15 08:58:20;;;;;;;7.10;4.50;;;;;;;;;;4970840;28;20050;-85
2021/04/15 09:01:24;;;;;;;8.27;4.32;;;;;;;;;;4994130;28;20465;-85
2021/04/15 09:04:17;;;;;;;7.47;5.00;;;;;;;;;;4992478;28;20025;-85
2021/04/15 09:07:03;;;;;;;8.73;5.28;;;;;;;;;;4988894;28;20076;-85
2021/04/15 09:10:01;;;;;;;7.65;4.88;;;;;;;;;;4992073;28;20021;-85
2021/04/15 09:13:05;;;;;;;7.63;4.25;;;;;;;;;;4993810;28;20534;-88
2021/04/15 09:16:14;;;;;;;6.78;4.35;;;;;;;;;;4987461;28;20041;-85
2021/04/15 09:18:59;;;;;;;5.97;4.07;;;;;;;;;;4967715;28;20122;-87
2021/04/15 09:21:50;;;;;;;9.13;4.88;;;;;;;;;;4995960;28;20026;-82
2021/04/15 09:24:42;;;;;;;6.57;4.70;;;;;;;;;;4993912;28;20030;-92
2021/04/15 09:27:32;;;;;;;34.30;29.85;;;;;;;;;;4998090;28;20041;-84
2021/04/15 09:30:20;;;;;;;6.38;3.75;;;;;;;;;;5009352;28;20021;-91
2021/04/15 09:33:21;;;;;;;7.68;3.85;;;;;;;;;;5009270;28;20025;-89
2021/04/15 09:36:15;;;;;;;6.22;4.40;;;;;;;;;;4974671;28;20533;-89
2021/04/15 09:39:17;;;;;;;8.73;4.40;;;;;;;;;;4996231;28;20762;-88
2021/04/15 09:42:24;;;;;;;6.28;4.05;;;;;;;;;;4972912;28;20485;-91
2021/04/15 09:45:33;;;;;;;7.07;4.70;;;;;;;;;;4989718;28;20026;-90
2021/04/15 09:48:21;;;;;;;4.55;3.30;;;;;;;;;;4968301;28;20042;-89
2021/04/15 09:51:17;;;;;;;4.90;2.73;;;;;;;;;;4989873;28;20068;-90
2021/04/15 09:54:21;;;;;;;6.55;3.20;;;;;;;;;;4989296;28;20536;-89
2021/04/15 09:57:25;;;;;;;4.35;3.05;;;;;;;;;;4987743;28;20046;-90
2021/04/15 10:00:44;;;;;;;;;;;;;;;;;;;;;
2021/04/15 10:03:37;;;;;;;22.15;17.42;;;;;;;;;;4965062;28;20245;-91
2021/04/15 10:14:07;;;;;;;5.72;3.25;;;;;;;;;;4783265;29;20035;-89
2021/04/15 10:17:18;;;;;;;8.48;4.30;;;;;;;;;;4791192;29;20045;-90
2021/04/15 10:24:06;;;;;;;3.88;2.30;;;;;;;;;;4899391;29;20051;-91
2021/04/15 10:27:18;;;;;;;4.40;2.13;;;;;;;;;;4969879;28;20039;-89
2021/04/15 10:30:03;;;;;;;4.70;2.53;;;;;;;;;;4970055;28;20110;-90
2021/04/15 10:32:51;;;;;;;5.45;3.17;;;;;;;;;;4959485;28;20034;-89
2021/04/15 10:35:55;;;;;;;5.28;3.33;;;;;;;;;;4972413;28;20109;-86
2021/04/15 10:38:49;;;;;;;4.80;3.05;;;;;;;;;;4975825;28;20031;-88
2021/04/15 10:41:54;;;;;;;5.97;2.88;;;;;;;;;;4971591;28;20058;-85
2021/04/15 10:44:58;;;;;;;6.88;3.83;;;;;;;;;;4986962;28;20026;-85
2021/04/15 10:48:05;;;;;;;5.93;3.55;;;;;;;;;;4958093;28;20393;-85
2021/04/15 10:50:56;;;;;;;6.10;3.45;;;;;;;;;;4957154;28;20076;-84
2021/04/15 10:53:45;;;;;;;8.98;3.45;;;;;;;;;;4974324;28;20077;-83
2021/04/15 10:56:32;;;;;;;5.53;3.30;;;;;;;;;;4971387;28;20523;-85
2021/04/15 10:59:33;;;;;;;4.85;3.33;;;;;;;;;;4980432;28;20096;-90
2021/04/15 11:02:27;;;;;;;5.47;3.33;;;;;;;;;;4971697;28;20041;-81
2021/04/15 11:05:24;;;;;;;4.60;3.03;;;;;;;;;;4978824;28;20105;-86
2021/04/15 11:08:26;;;;;;;8.73;3.67;;;;;;;;;;4974975;28;20076;-84
2021/04/15 11:11:27;;;;;;;5.93;3.30;;;;;;;;;;4972805;28;20023;-85
2021/04/15 11:14:13;;;;;;;5.45;2.95;;;;;;;;;;4975116;28;20026;-87
2021/04/15 11:16:58;;;;;;;5.72;3.40;;;;;;;;;;4976163;28;20037;-87
2021/04/15 11:19:43;;;;;;;6.72;3.40;;;;;;;;;;4962014;28;20026;-86
2021/04/15 11:22:33;;;;;;;6.38;3.92;;;;;;;;;;4973136;28;20376;-87
2021/04/15 11:25:27;;;;;;;6.47;3.58;;;;;;;;;;4976391;28;20571;-85
2021/04/15 11:28:15;;;;;;;6.50;3.47;;;;;;;;;;4970817;28;20504;-85
2021/04/15 11:31:09;;;;;;;5.25;3.10;;;;;;;;;;4975569;28;20429;-86
2021/04/15 11:34:24;;;;;;;5.40;3.00;;;;;;;;;;4977961;28;20018;-83
2021/04/15 11:37:18;;;;;;;7.60;2.95;;;;;;;;;;4971582;28;20061;-84
2021/04/15 11:40:16;;;;;;;3.58;3.00;;;;;;;;;;4977905;28;20030;-84
2021/04/15 11:43:13;;;;;;;4.25;3.10;;;;;;;;;;4976575;28;20259;-84
2021/04/15 11:46:11;;;;;;;3.70;2.70;;;;;;;;;;4975786;28;20026;-85
2021/04/15 11:49:05;;;;;;;5.65;3.05;;;;;;;;;;4976786;28;20576;-82
2021/04/15 11:52:03;;;;;;;4.97;2.47;;;;;;;;;;4973461;28;20021;-83
2021/04/15 11:54:48;;;;;;;6.15;3.38;;;;;;;;;;4975463;28;20018;-83
2021/04/15 11:57:34;;;;;;;5.13;3.22;;;;;;;;;;4985776;28;20137;-85
2021/04/15 12:00:43;;;;;;;4.15;3.00;;;;;;;;;;4977574;28;20488;-85
2021/04/15 12:03:28;;;;;;;4.93;2.80;;;;;;;;;;4973442;28;20117;-85
2021/04/15 12:06:13;;;;;;;5.95;2.95;;;;;;;;;;4974399;28;20022;-82
2021/04/15 12:08:59;;;;;;;4.65;3.00;;;;;;;;;;4957082;28;20030;-81
2021/04/15 12:11:54;;;;;;;5.43;3.08;;;;;;;;;;4972997;28;20019;-83
2021/04/15 12:14:40;;;;;;;5.97;3.10;;;;;;;;;;4974435;28;20054;-83
2021/04/15 12:17:32;;;;;;;3.80;2.58;;;;;;;;;;4977455;28;20440;-85
2021/04/15 12:20:25;;;;;;;5.82;3.00;;;;;;;;;;4971001;28;20654;-85
2021/04/15 12:23:23;;;;;;;4.70;2.28;;;;;;;;;;4975066;28;20511;-85
2021/04/15 12:26:23;;;;;;;6.78;2.53;;;;;;;;;;4958470;28;20026;-83
2021/04/15 12:29:21;;;;;;;2.50;2.13;;;;;;;;;;4974880;28;20101;-84
2021/04/15 12:32:06;;;;;;;6.50;2.72;;;;;;;;;;4973640;28;20018;-83
2021/04/15 12:35:03;;;;;;;5.20;2.95;;;;;;;;;;4971058;28;20036;-83
2021/04/15 12:38:08;;;;;;;5.30;3.03;;;;;;;;;;4974670;28;20026;-84
2021/04/15 12:41:06;;;;;;;5.80;2.95;;;;;;;;;;4971138;28;20030;-84
2021/04/15 12:43:54;;;;;;;6.38;2.85;;;;;;;;;;4971786;28;20085;-84
2021/04/15 12:46:40;;;;;;;6.38;2.30;;;;;;;;;;4988040;28;20045;-85
2021/04/15 12:49:28;;;;;;;9.20;5.88;;;;;;;;;;4972323;28;20121;-84
2021/04/15 12:52:14;;;;;;;4.72;2.90;;;;;;;;;;4972036;28;20022;-84
2021/04/15 12:55:00;;;;;;;5.85;3.20;;;;;;;;;;4966439;28;20433;-83
2021/04/15 12:57:46;;;;;;;4.10;2.75;;;;;;;;;;4987859;28;20054;-86
2021/04/15 13:00:41;;;;;;;7.70;2.90;;;;;;;;;;4970640;28;20014;-85
2021/04/15 13:03:26;;;;;;;4.40;3.08;;;;;;;;;;4970602;28;20098;-84
2021/04/15 13:06:13;;;;;;;5.50;2.92;;;;;;;;;;4971269;28;20034;-86
2021/04/15 13:08:58;;;;;;;6.97;3.20;;;;;;;;;;4972529;28;20073;-84
2021/04/15 13:11:44;;;;;;;5.15;2.67;;;;;;;;;;4967599;28;20084;-85
2021/04/15 13:14:37;;;;;;;4.13;2.40;;;;;;;;;;4972301;28;20161;-84
2021/04/15 13:17:35;;;;;;;5.00;2.60;;;;;;;;;;4975883;28;20054;-85
2021/04/15 13:20:21;;;;;;;3.90;2.80;;;;;;;;;;4971764;28;20029;-82
2021/04/15 13:23:06;;;;;;;4.57;2.83;;;;;;;;;;4968714;28;20089;-84
2021/04/15 13:25:51;;;;;;;4.53;3.30;;;;;;;;;;4972818;28;20034;-86
2021/04/15 13:28:49;;;;;;;5.53;3.08;;;;;;;;;;4970616;28;20034;-84
2021/04/15 13:31:40;;;;;;;4.22;2.95;;;;;;;;;;4971562;28;20037;-86
2021/04/15 13:34:28;;;;;;;5.95;3.20;;;;;;;;;;4972947;28;20034;-85
2021/04/15 13:37:36;;;;;;;4.90;2.72;;;;;;;;;;4971112;28;20375;-84
2021/04/15 13:40:27;;;;;;;3.90;2.60;;;;;;;;;;4975052;28;20145;-84
2021/04/15 13:43:31;;;;;;;5.15;3.00;;;;;;;;;;4974808;28;20022;-86
2021/04/15 13:46:28;;;;;;;4.90;2.83;;;;;;;;;;5001905;28;20101;-85
2021/04/15 13:49:20;;;;;;;3.22;2.50;;;;;;;;;;4971912;28;20583;-85
2021/04/15 13:52:07;;;;;;;2.67;2.13;;;;;;;;;;5001330;28;20036;-85
2021/04/15 13:54:53;;;;;;;5.43;2.85;;;;;;;;;;4974886;28;20019;-85
2021/04/15 13:57:45;;;;;;;11.18;6.47;;;;;;;;;;4977310;28;20050;-85
2021/04/15 14:01:02;;;;;;;10.13;3.78;;;;;;;;;;4975283;28;20483;-85
2021/04/15 14:03:48;;;;;;;6.03;2.80;;;;;;;;;;4971965;28;20030;-85
2021/04/15 14:06:33;;;;;;;5.60;2.72;;;;;;;;;;4975859;28;20031;-86
2021/04/15 14:09:25;;;;;;;4.45;2.97;;;;;;;;;;4973301;28;20037;-86
2021/04/15 14:12:31;;;;;;;;;;;;;;;;;;4976190;28;20484;-85
2021/04/15 14:15:32;;;;;;;4.78;2.70;;;;;;;;;;4973759;28;19917;-84
2021/04/15 14:18:20;;;;;;;7.80;2.90;;;;;;;;;;4975171;28;20037;-86
2021/04/15 14:21:11;;;;;;;5.72;3.08;;;;;;;;;;4969334;28;20026;-86
2021/04/15 14:24:03;;;;;;;4.43;2.60;;;;;;;;;;4961177;28;20547;-86
2021/04/15 14:26:51;;;;;;;4.82;3.10;;;;;;;;;;4975783;28;20381;-85
2021/04/15 14:29:38;;;;;;;3.50;2.05;;;;;;;;;;4986033;28;20038;-83
2021/04/15 14:32:25;;;;;;;4.03;2.60;;;;;;;;;;4964784;28;20037;-85
2021/04/15 14:35:19;;;;;;;5.05;3.20;;;;;;;;;;4975257;28;20114;-84
2021/04/15 14:38:05;;;;;;;6.53;3.25;;;;;;;;;;4972912;28;20041;-83
2021/04/15 14:40:54;;;;;;;3.70;2.35;;;;;;;;;;4972883;28;20034;-83
2021/04/15 14:43:41;;;;;;;4.32;2.70;;;;;;;;;;4980907;28;20092;-89
2021/04/15 14:46:55;;;;;;;4.90;2.95;;;;;;;;;;4979260;28;20122;-88
2021/04/15 14:50:16;;;;;;;;;;;;;;;;;;;;;
2021/04/15 14:53:10;;;;;;;4.90;2.97;;;;;;;;;;4974359;28;20035;-87
2021/04/15 14:56:17;;;;;;;5.68;3.35;;;;;;;;;;4975523;28;20023;-87
2021/04/15 14:59:05;;;;;;;9.45;4.72;;;;;;;;;;4973487;28;20041;-85
2021/04/15 15:01:51;;;;;;;6.20;3.40;;;;;;;;;;4974203;28;20026;-85
2021/04/15 15:04:36;;;;;;;4.05;3.10;;;;;;;;;;4975892;28;20029;-85
2021/04/15 15:07:24;;;;;;;7.57;3.63;;;;;;;;;;4952889;28;20038;-86
2021/04/15 15:10:15;;;;;;;6.95;3.28;;;;;;;;;;4974357;28;20027;-85
2021/04/15 15:13:12;;;;;;;5.10;3.40;;;;;;;;;;4971138;28;20509;-86
2021/04/15 15:15:58;;;;;;;6.13;3.30;;;;;;;;;;4972299;28;20045;-87
2021/04/15 15:18:46;;;;;;;8.05;3.72;;;;;;;;;;4989209;28;20045;-87
2021/04/15 15:21:33;;;;;;;7.65;3.78;;;;;;;;;;4973443;28;20771;-84
2021/04/15 15:24:21;;;;;;;5.20;3.25;;;;;;;;;;4972978;28;20026;-86
2021/04/15 15:27:31;;;;;;;5.63;3.45;;;;;;;;;;4977541;28;20489;-86
2021/04/15 15:30:39;;;;;;;5.80;3.15;;;;;;;;;;4978111;28;20662;-86
2021/04/15 15:33:37;;;;;;;5.78;3.40;;;;;;;;;;4962985;28;20393;-86
2021/04/15 15:36:49;;;;;;;7.07;3.42;;;;;;;;;;4979199;28;20038;-88
2021/04/15 15:39:35;;;;;;;5.97;3.50;;;;;;;;;;4973462;28;20540;-87
2021/04/15 15:42:50;;;;;;;8.27;3.65;;;;;;;;;;4968764;28;20033;-84
2021/04/15 15:45:57;;;;;;;7.85;3.60;;;;;;;;;;4971668;28;20169;-84
2021/04/15 15:48:42;;;;;;;8.27;4.32;;;;;;;;;;4972626;28;20026;-83
2021/04/15 15:51:32;;;;;;;6.90;3.90;;;;;;;;;;4959320;28;20502;-82
2021/04/15 15:54:33;;;;;;;7.43;3.85;;;;;;;;;;4974326;28;20073;-85
2021/04/15 15:57:23;;;;;;;6.80;3.70;;;;;;;;;;4975215;28;20046;-85
2021/04/15 16:00:17;;;;;;;6.72;4.05;;;;;;;;;;4972327;28;20105;-86
2021/04/15 16:03:21;;;;;;;7.57;3.92;;;;;;;;;;4975785;28;20030;-84
2021/04/15 16:06:20;;;;;;;6.13;3.63;;;;;;;;;;4978445;28;20373;-85
2021/04/15 16:09:10;;;;;;;4.53;3.30;;;;;;;;;;4978104;28;20044;-84
2021/04/15 16:11:55;;;;;;;5.43;3.33;;;;;;;;;;4974650;28;20495;-83
2021/04/15 16:14:42;;;;;;;5.50;3.20;;;;;;;;;;4961614;28;20034;-87
2021/04/15 16:18:10;;;;;;;3.78;3.10;;;;;;;;;;4970872;28;20385;-87
2021/04/15 16:21:03;;;;;;;8.48;4.50;;;;;;;;;;4892301;29;20107;-86
2021/04/15 16:23:50;;;;;;;5.78;3.63;;;;;;;;;;4968531;28;20113;-86
2021/04/15 16:26:35;;;;;;;5.47;3.65;;;;;;;;;;4978676;28;20057;-85
2021/04/15 16:29:21;;;;;;;6.90;4.35;;;;;;;;;;4974108;28;20515;-85
2021/04/15 16:32:07;;;;;;;6.40;3.88;;;;;;;;;;4968962;28;20030;-85
2021/04/15 16:34:52;;;;;;;7.80;3.55;;;;;;;;;;4982486;28;20018;-86
2021/04/15 16:37:39;;;;;;;78.95;51.88;;;;;;;;;;4972814;28;20034;-84
2021/04/15 16:40:25;;;;;;;6.18;4.00;;;;;;;;;;4973710;28;20064;-84
2021/04/15 16:43:10;;;;;;;7.82;3.78;;;;;;;;;;4978233;28;20090;-84
2021/04/15 16:45:55;;;;;;;6.35;3.53;;;;;;;;;;4989841;28;20048;-84
2021/04/15 16:48:41;;;;;;;6.10;3.40;;;;;;;;;;4991529;28;20086;-84
2021/04/15 16:51:26;;;;;;;8.40;3.50;;;;;;;;;;4995789;28;20110;-84
2021/04/15 16:54:11;;;;;;;4.82;3.00;;;;;;;;;;4974826;28;20453;-85
2021/04/15 16:56:57;;;;;;;7.80;3.67;;;;;;;;;;4976970;28;20555;-84
2021/04/15 16:59:42;;;;;;;4.50;2.40;;;;;;;;;;4977628;28;20038;-85
2021/04/15 17:02:29;;;;;;;5.40;3.13;;;;;;;;;;4975986;28;20022;-84
2021/04/15 17:05:15;;;;;;;7.93;2.92;;;;;;;;;;4986752;28;20053;-84
2021/04/15 17:08:08;;;;;;;7.30;3.20;;;;;;;;;;4956667;28;20100;-84
2021/04/15 17:10:54;;;;;;;30.80;19.00;;;;;;;;;;4968568;28;20030;-84
2021/04/15 17:13:40;;;;;;;8.25;3.95;;;;;;;;;;4975133;28;20023;-84
2021/04/15 17:16:25;;;;;;;8.55;2.70;;;;;;;;;;4980079;28;20026;-86
2021/04/15 17:19:10;;;;;;;4.28;2.53;;;;;;;;;;4961406;28;20042;-85